Time;durP1;ratioP1;P1;durP2;ratioP2;P2;SDS_P1;SDS_P2;PMS_P1;PMS_P2;Temp;Humidity;BMP_temperature;BMP_pressure;BME280_temperature;BME280_humidity;BME280_pressure;Samples;Min_cycle;Max_cycle;Signal;HPM_P1;HPM_P2
2022/06/24 00:01:41;;;;;;;1.55;1.10;;;;;;;31.02;23.92;98151.38;5076660;28;20037;-76
2022/06/24 00:04:08;;;;;;;2.63;1.30;;;;;;;31.11;24.13;98154.94;5079198;28;20433;-76
2022/06/24 00:06:47;;;;;;;2.08;1.17;;;;;;;31.18;23.43;98156.69;5075658;28;20028;-76
2022/06/24 00:09:15;;;;;;;2.22;1.55;;;;;;;31.01;23.99;98158.31;5075936;28;20021;-76
2022/06/24 00:11:42;;;;;;;2.50;1.27;;;;;;;31.31;23.70;98158.00;5091287;28;20021;-76
2022/06/24 00:14:11;;;;;;;1.20;1.10;;;;;;;31.39;23.28;98155.59;5075313;28;20040;-77
2022/06/24 00:16:59;;;;;;;1.23;1.05;;;;;;;31.49;22.91;98165.63;5075519;28;20469;-76
2022/06/24 00:19:27;;;;;;;3.45;1.25;;;;;;;31.52;23.24;98163.91;5081941;28;20182;-76
2022/06/24 00:22:01;;;;;;;1.65;1.02;;;;;;;31.51;22.99;98163.09;5075353;28;20054;-76
2022/06/24 00:24:27;;;;;;;2.20;1.27;;;;;;;31.29;23.58;98166.22;5087147;28;20024;-76
2022/06/24 00:26:54;;;;;;;1.75;1.10;;;;;;;31.08;23.86;98164.44;5115948;28;20139;-76
2022/06/24 00:29:20;;;;;;;2.67;1.17;;;;;;;31.11;23.95;98169.13;5115655;28;20089;-76
2022/06/24 00:32:04;;;;;;;2.40;1.40;;;;;;;30.90;23.73;98167.34;5115846;28;20028;-77
2022/06/24 00:34:31;;;;;;;2.55;1.42;;;;;;;30.64;24.64;98169.00;5077808;28;20112;-76
2022/06/24 00:36:57;;;;;;;2.72;1.40;;;;;;;30.62;24.97;98168.69;5098174;28;20082;-76
2022/06/24 00:39:34;;;;;;;2.05;1.20;;;;;;;30.72;24.23;98173.03;5095311;28;20232;-76
2022/06/24 00:42:02;;;;;;;1.33;1.23;;;;;;;30.91;24.62;98171.75;5095158;28;20035;-76
2022/06/24 00:44:54;;;;;;;2.13;1.40;;;;;;;31.00;23.59;98162.41;5095028;28;20503;-76
2022/06/24 00:47:22;;;;;;;1.42;1.20;;;;;;;31.25;24.01;98167.66;5110940;28;20036;-76
2022/06/24 00:49:51;;;;;;;1.92;0.95;;;;;;;31.41;23.68;98167.25;5094904;28;20028;-77
2022/06/24 00:52:18;;;;;;;3.08;1.65;;;;;;;31.41;23.72;98162.34;5074799;28;20029;-76
2022/06/24 00:54:45;;;;;;;1.25;1.00;;;;;;;31.36;24.05;98163.03;5079412;28;20031;-76
2022/06/24 00:57:12;;;;;;;1.88;1.35;;;;;;;30.73;24.41;98166.13;5074765;28;20119;-77
2022/06/24 00:59:39;;;;;;;1.40;1.27;;;;;;;30.14;25.17;98167.63;5074896;28;20028;-76
2022/06/24 01:02:06;;;;;;;2.40;1.30;;;;;;;29.84;26.21;98165.75;5074444;28;20037;-76
2022/06/24 01:04:34;;;;;;;2.30;1.60;;;;;;;30.00;25.85;98165.44;5074557;28;20036;-76
2022/06/24 01:07:00;;;;;;;3.88;2.05;;;;;;;29.84;26.11;98160.88;5074842;28;20036;-76
2022/06/24 01:09:27;;;;;;;2.17;1.58;;;;;;;30.07;25.77;98159.47;5074425;28;20037;-76
2022/06/24 01:11:53;;;;;;;2.05;1.50;;;;;;;29.97;26.17;98155.06;5078415;28;20082;-76
2022/06/24 01:14:20;;;;;;;2.90;1.77;;;;;;;29.86;26.39;98149.09;5074390;28;20476;-76
2022/06/24 01:16:46;;;;;;;2.50;1.35;;;;;;;29.98;25.80;98156.63;5074205;28;20035;-76
2022/06/24 01:19:14;;;;;;;2.28;1.38;;;;;;;30.13;25.73;98142.63;5073950;28;20032;-76
2022/06/24 01:21:42;;;;;;;3.50;1.48;;;;;;;30.05;26.08;98142.16;5074141;28;20033;-76
2022/06/24 01:24:21;;;;;;;2.17;1.42;;;;;;;30.57;25.02;98143.81;5078239;28;20543;-76
2022/06/24 01:26:55;;;;;;;2.95;1.92;;;;;;;30.83;24.16;98144.19;5082140;28;20476;-76
2022/06/24 01:29:22;;;;;;;2.53;1.80;;;;;;;31.11;23.88;98142.84;5075681;28;20025;-76
2022/06/24 01:31:50;;;;;;;2.70;1.40;;;;;;;31.27;23.75;98140.34;5074250;28;20424;-76
2022/06/24 01:34:18;;;;;;;2.67;1.40;;;;;;;31.31;23.90;98137.34;5074030;28;20029;-76
2022/06/24 01:36:44;;;;;;;1.35;1.25;;;;;;;30.98;24.12;98136.59;5074001;28;20024;-76
2022/06/24 01:39:10;;;;;;;2.15;1.30;;;;;;;30.79;24.32;98144.34;5073904;28;20483;-76
2022/06/24 01:41:37;;;;;;;1.48;1.20;;;;;;;30.74;24.58;98140.13;5073638;28;20111;-76
2022/06/24 01:44:03;;;;;;;1.67;1.17;;;;;;;30.76;23.92;98142.47;5074027;28;20035;-76
2022/06/24 01:46:30;;;;;;;1.63;1.13;;;;;;;30.90;23.95;98144.66;5074094;28;20032;-76
2022/06/24 01:48:56;;;;;;;1.95;1.25;;;;;;;31.05;23.77;98147.59;5077439;28;20035;-76
2022/06/24 01:51:24;;;;;;;3.33;1.15;;;;;;;31.04;23.29;98146.03;5094038;28;20107;-76
2022/06/24 01:53:51;;;;;;;2.55;1.52;;;;;;;30.95;23.95;98148.91;5094003;28;20103;-76
2022/06/24 01:56:17;;;;;;;1.83;1.20;;;;;;;30.63;24.32;98145.53;5093739;28;20036;-76
2022/06/24 01:58:44;;;;;;;2.22;1.67;;;;;;;30.19;24.61;98141.50;5075695;28;20039;-76
2022/06/24 02:01:10;;;;;;;1.92;1.50;;;;;;;29.38;25.35;98137.38;5092381;28;20063;-76
2022/06/24 02:03:39;;;;;;;3.90;1.60;;;;;;;28.68;26.64;98137.47;5073401;28;20100;-76
2022/06/24 02:06:10;;;;;;;1.90;1.55;;;;;;;28.65;26.86;98138.38;5073759;28;20033;-76
2022/06/24 02:08:37;;;;;;;1.65;1.55;;;;;;;29.21;26.02;98140.97;5073350;28;20029;-76
2022/06/24 02:13:49;;;;;;;1.60;1.33;;;;;;;30.20;24.34;98143.06;5073482;28;20047;-76
2022/06/24 02:16:16;;;;;;;3.00;1.30;;;;;;;29.84;25.29;98137.44;5073310;28;20032;-76
2022/06/24 02:18:42;;;;;;;1.50;1.10;;;;;;;29.87;24.84;98131.63;5082012;28;20035;-76
2022/06/24 02:21:08;;;;;;;1.33;1.10;;;;;;;29.75;24.62;98126.91;5093408;28;20036;-76
2022/06/24 02:23:35;;;;;;;2.35;1.23;;;;;;;29.86;24.86;98129.28;5093383;28;20071;-76
2022/06/24 02:26:01;;;;;;;1.45;1.30;;;;;;;29.73;24.97;98125.78;5074541;28;20040;-77
2022/06/24 02:28:27;;;;;;;5.20;1.27;;;;;;;29.70;25.29;98126.72;5073358;28;20480;-76
2022/06/24 02:30:58;;;;;;;1.35;1.00;;;;;;;29.99;24.36;98121.41;5055319;28;20400;-76
2022/06/24 02:33:26;;;;;;;1.42;1.17;;;;;;;30.05;24.85;98116.66;5073452;28;20031;-76
2022/06/24 02:35:52;;;;;;;1.85;1.00;;;;;;;30.39;23.89;98127.63;5079887;28;20039;-76
2022/06/24 02:38:18;;;;;;;2.13;1.15;;;;;;;30.63;23.37;98120.00;5093032;28;20099;-76
2022/06/24 02:40:48;;;;;;;1.63;1.25;;;;;;;30.89;23.21;98125.28;5093191;28;20122;-76
2022/06/24 02:43:25;;;;;;;1.15;1.05;;;;;;;30.89;23.17;98122.44;5093261;28;20522;-76
2022/06/24 02:46:13;;;;;;;2.83;1.27;;;;;;;30.23;24.02;98127.97;5093164;28;20494;-76
2022/06/24 02:48:41;;;;;;;2.25;1.23;;;;;;;29.91;24.85;98128.63;5082474;28;20050;-76
2022/06/24 02:51:10;;;;;;;1.77;1.25;;;;;;;30.27;23.94;98128.56;5072912;28;20082;-76
2022/06/24 02:53:36;;;;;;;2.55;1.10;;;;;;;30.61;23.61;98133.88;5085487;28;20028;-76
2022/06/24 02:56:05;;;;;;;1.90;1.00;;;;;;;30.39;23.79;98126.84;5078384;28;20043;-76
2022/06/24 02:58:31;;;;;;;1.55;1.20;;;;;;;30.25;24.09;98133.16;5077005;28;20040;-76
2022/06/24 03:00:58;;;;;;;2.15;0.88;;;;;;;30.36;23.74;98134.28;5077383;28;20103;-76
2022/06/24 03:03:25;;;;;;;1.63;1.25;;;;;;;30.67;23.20;98131.16;5077026;28;20039;-76
2022/06/24 03:05:51;;;;;;;1.67;1.00;;;;;;;30.90;23.32;98124.03;5076823;28;20028;-76
2022/06/24 03:08:25;;;;;;;3.05;1.30;;;;;;;30.55;23.12;98137.84;5076588;28;20033;-76
2022/06/24 03:10:53;;;;;;;1.40;1.10;;;;;;;30.26;23.88;98140.41;5091996;28;20499;-76
2022/06/24 03:13:19;;;;;;;1.77;1.05;;;;;;;30.12;24.09;98141.03;5097215;28;20027;-76
2022/06/24 03:15:48;;;;;;;1.85;1.05;;;;;;;30.01;24.02;98133.03;5097184;28;20064;-76
2022/06/24 03:18:14;;;;;;;6.75;1.20;;;;;;;29.92;24.18;98133.81;5085821;28;20031;-76
2022/06/24 03:20:41;;;;;;;1.83;1.00;;;;;;;29.98;24.11;98139.66;5077962;28;20055;-76
2022/06/24 03:23:07;;;;;;;2.25;1.13;;;;;;;30.22;23.74;98142.63;5096691;28;20058;-76
2022/06/24 03:25:33;;;;;;;1.70;1.30;;;;;;;30.42;23.54;98131.56;5095323;28;20111;-76
2022/06/24 03:28:04;;;;;;;2.45;0.90;;;;;;;30.46;23.30;98140.69;5092514;28;20036;-76
2022/06/24 03:30:32;;;;;;;1.20;0.98;;;;;;;30.48;23.75;98130.44;5096942;28;20534;-76
2022/06/24 03:32:58;;;;;;;1.42;1.00;;;;;;;30.89;23.58;98134.59;5096816;28;20036;-76
2022/06/24 03:35:24;;;;;;;0.85;0.80;;;;;;;31.17;23.17;98135.22;5097268;28;20036;-76
2022/06/24 03:37:50;;;;;;;1.02;0.90;;;;;;;31.28;23.73;98130.59;5096335;28;20020;-76
2022/06/24 03:40:17;;;;;;;2.35;1.00;;;;;;;31.72;23.86;98124.31;5096434;28;20103;-76
2022/06/24 03:42:43;;;;;;;1.92;0.90;;;;;;;32.04;23.74;98129.13;5095864;28;20039;-76
2022/06/24 03:45:09;;;;;;;1.35;1.08;;;;;;;32.50;23.94;98132.31;5061196;28;20060;-76
2022/06/24 03:47:35;;;;;;;0.88;0.70;;;;;;;33.24;22.25;98131.72;5076119;28;20033;-76
2022/06/24 03:50:01;;;;;;;1.17;0.90;;;;;;;33.92;21.83;98131.31;5075942;28;20029;-76
2022/06/24 03:52:27;;;;;;;1.67;1.08;;;;;;;34.34;21.50;98127.91;5075882;28;20033;-76
2022/06/24 03:54:53;;;;;;;1.05;1.05;;;;;;;33.80;21.53;98136.09;5081459;28;20020;-76
2022/06/24 03:57:20;;;;;;;2.15;1.20;;;;;;;33.56;22.33;98137.63;5095025;28;20543;-76
2022/06/24 03:59:46;;;;;;;1.27;1.10;;;;;;;33.58;21.87;98129.34;5095225;28;20111;-76
2022/06/24 04:02:12;;;;;;;1.75;0.90;;;;;;;33.26;22.48;98139.75;5077879;28;20055;-76
2022/06/24 04:04:38;;;;;;;1.30;0.95;;;;;;;33.26;22.87;98131.19;5058321;28;20032;-77
2022/06/24 04:07:04;;;;;;;1.02;0.85;;;;;;;33.35;22.58;98139.63;5075770;28;20047;-76
2022/06/24 04:09:31;;;;;;;0.98;0.85;;;;;;;33.48;22.46;98131.53;5075602;28;20329;-76
2022/06/24 04:11:57;;;;;;;1.10;1.00;;;;;;;33.43;22.58;98135.88;5075488;28;20229;-76
2022/06/24 04:17:07;;;;;;;1.40;1.00;;;;;;;33.61;22.55;98143.38;5079668;28;20035;-76
2022/06/24 04:19:36;;;;;;;1.20;1.10;;;;;;;33.74;22.73;98143.00;5075371;28;20051;-76
2022/06/24 04:22:04;;;;;;;1.85;1.05;;;;;;;33.98;22.55;98152.13;5075289;28;20425;-76
2022/06/24 04:24:30;;;;;;;1.65;1.02;;;;;;;34.00;22.58;98156.00;5075345;28;20158;-76
2022/06/24 04:26:56;;;;;;;1.38;1.00;;;;;;;34.00;22.90;98163.81;5079165;28;20107;-77
2022/06/24 04:29:22;;;;;;;1.73;0.90;;;;;;;34.50;21.48;98159.44;5075506;28;20115;-76
2022/06/24 04:31:48;;;;;;;1.65;1.00;;;;;;;34.68;21.64;98161.19;5075312;28;20039;-77
2022/06/24 04:34:14;;;;;;;1.77;1.10;;;;;;;34.70;21.71;98156.53;5077318;28;20031;-77
2022/06/24 04:36:40;;;;;;;1.17;0.82;;;;;;;34.79;21.46;98152.72;5077509;28;20056;-77
2022/06/24 04:39:06;;;;;;;0.60;0.60;;;;;;;35.06;21.34;98157.09;5095327;28;20028;-77
2022/06/24 04:41:33;;;;;;;0.80;0.80;;;;;;;34.87;21.57;98150.97;5094980;28;20522;-77
2022/06/24 04:43:59;;;;;;;0.80;0.70;;;;;;;34.93;21.61;98154.66;5095211;28;20033;-77
2022/06/24 04:46:25;;;;;;;0.88;0.68;;;;;;;34.87;21.69;98153.81;5094545;28;20036;-77
2022/06/24 04:48:51;;;;;;;2.17;0.90;;;;;;;34.74;21.34;98154.25;5074916;28;20476;-77
2022/06/24 04:51:17;;;;;;;1.60;0.80;;;;;;;34.36;21.85;98153.84;5076787;28;20029;-77
2022/06/24 04:53:43;;;;;;;0.90;0.80;;;;;;;34.39;21.69;98153.63;5076860;28;20050;-77
2022/06/24 04:56:09;;;;;;;0.80;0.80;;;;;;;34.63;21.77;98153.38;5094551;28;20044;-77
2022/06/24 04:58:35;;;;;;;0.90;0.90;;;;;;;34.69;21.37;98154.97;5076699;28;20084;-77
2022/06/24 05:01:01;;;;;;;0.98;0.70;;;;;;;34.55;22.24;98149.38;5094772;28;20396;-77
2022/06/24 05:03:28;;;;;;;1.27;0.80;;;;;;;34.63;22.17;98154.16;5094945;28;20032;-77
2022/06/24 05:05:54;;;;;;;1.23;0.88;;;;;;;34.81;21.72;98143.66;5095270;28;20032;-77
2022/06/24 05:08:20;;;;;;;0.80;0.75;;;;;;;35.32;21.08;98146.38;5092019;28;20028;-77
2022/06/24 05:10:46;;;;;;;0.98;0.60;;;;;;;35.30;20.95;98146.91;5074197;28;20025;-77
2022/06/24 05:13:12;;;;;;;1.00;0.90;;;;;;;35.50;21.37;98150.91;5056729;28;20064;-76
2022/06/24 05:15:38;;;;;;;2.55;0.98;;;;;;;35.56;21.42;98155.38;5056422;28;20036;-76
2022/06/24 05:18:04;;;;;;;1.33;0.70;;;;;;;35.91;21.43;98147.22;5076235;28;20086;-76
2022/06/24 05:20:30;;;;;;;0.85;0.73;;;;;;;36.28;20.83;98143.44;5085605;28;20115;-76
2022/06/24 05:22:57;;;;;;;1.15;0.82;;;;;;;36.53;20.55;98143.25;5094641;28;20028;-76
2022/06/24 05:25:23;;;;;;;3.92;0.80;;;;;;;35.91;20.60;98150.09;5089093;28;20036;-76
2022/06/24 05:27:49;;;;;;;0.95;0.68;;;;;;;35.95;20.79;98144.09;5094273;28;20140;-76
2022/06/24 05:30:15;;;;;;;1.02;0.65;;;;;;;35.36;21.56;98146.91;5094421;28;20129;-76
2022/06/24 05:32:41;;;;;;;0.57;0.55;;;;;;;35.59;21.25;98147.88;5094201;28;20031;-76
2022/06/24 05:35:07;;;;;;;1.13;0.70;;;;;;;35.98;20.62;98143.13;5079890;28;20042;-76
2022/06/24 05:37:34;;;;;;;0.70;0.63;;;;;;;35.28;20.43;98143.78;5073957;28;20032;-76
2022/06/24 05:40:01;;;;;;;0.98;0.60;;;;;;;35.27;20.85;98141.41;5073932;28;20032;-76
2022/06/24 05:42:27;;;;;;;0.90;0.80;;;;;;;35.35;20.92;98146.16;5077217;28;20029;-76
2022/06/24 05:44:53;;;;;;;0.75;0.63;;;;;;;35.74;21.12;98146.38;5094220;28;20032;-76
2022/06/24 05:47:19;;;;;;;1.33;0.73;;;;;;;34.57;21.28;98144.75;5056378;28;20040;-76
2022/06/24 05:49:45;;;;;;;0.95;0.55;;;;;;;34.49;21.12;98145.69;5073764;28;20035;-76
2022/06/24 05:52:11;;;;;;;0.45;0.45;;;;;;;34.85;20.51;98150.69;5073410;28;20037;-76
2022/06/24 05:57:22;;;;;;;0.60;0.55;;;;;;;34.93;21.67;98140.38;5073187;28;20059;-76
2022/06/24 05:59:48;;;;;;;0.50;0.50;;;;;;;35.07;20.94;98145.19;5080028;28;20111;-76
2022/06/24 06:02:14;;;;;;;0.63;0.55;;;;;;;35.02;20.44;98145.94;5093611;28;20040;-76
2022/06/24 06:04:40;;;;;;;0.40;0.40;;;;;;;35.61;20.67;98145.28;5093749;28;20112;-76
2022/06/24 06:07:06;;;;;;;0.50;0.40;;;;;;;36.32;19.81;98143.97;5093899;28;20016;-76
2022/06/24 06:09:33;;;;;;;0.75;0.75;;;;;;;35.24;20.45;98145.31;5093983;28;20028;-76
2022/06/24 06:11:59;;;;;;;0.45;0.45;;;;;;;35.27;20.81;98147.13;5093831;28;20039;-76
2022/06/24 06:14:25;;;;;;;1.10;0.73;;;;;;;35.59;20.76;98154.38;5093502;28;20506;-76
2022/06/24 06:16:52;;;;;;;1.13;0.50;;;;;;;36.06;20.50;98141.31;5086689;28;20028;-76
2022/06/24 06:19:18;;;;;;;0.93;0.70;;;;;;;35.68;20.41;98147.66;5093544;28;20042;-76
2022/06/24 06:21:45;;;;;;;0.68;0.60;;;;;;;35.77;20.48;98139.63;5093207;28;20032;-76
2022/06/24 06:24:11;;;;;;;2.38;0.77;;;;;;;34.79;20.42;98152.72;5093695;28;20028;-76
2022/06/24 06:26:37;;;;;;;0.90;0.60;;;;;;;35.24;20.31;98153.88;5093530;28;20491;-76
2022/06/24 06:29:04;;;;;;;0.70;0.60;;;;;;;36.15;19.58;98160.31;5093328;28;20046;-76
2022/06/24 06:31:30;;;;;;;0.73;0.63;;;;;;;36.18;19.40;98151.47;5092357;28;20020;-76
2022/06/24 06:33:56;;;;;;;1.58;0.73;;;;;;;36.15;19.68;98158.25;5087836;28;20036;-76
2022/06/24 06:36:22;;;;;;;1.05;0.70;;;;;;;35.35;19.74;98153.94;5093065;28;20028;-76
2022/06/24 06:38:48;;;;;;;0.70;0.70;;;;;;;35.20;19.87;98154.09;5093572;28;20386;-76
2022/06/24 06:41:17;;;;;;;1.85;0.80;;;;;;;35.70;18.96;98147.91;5075703;28;20028;-76
2022/06/24 06:43:43;;;;;;;0.80;0.80;;;;;;;35.97;18.84;98141.50;5093575;28;20036;-76
2022/06/24 06:46:10;;;;;;;3.65;0.65;;;;;;;34.81;19.33;98144.44;5086144;28;20025;-77
2022/06/24 06:48:37;;;;;;;1.70;0.70;;;;;;;35.14;19.18;98144.72;5072968;28;20374;-76
2022/06/24 06:51:03;;;;;;;1.80;0.90;;;;;;;34.72;19.49;98141.78;5081033;28;20101;-76
2022/06/24 06:53:29;;;;;;;3.88;0.90;;;;;;;33.63;20.72;98148.56;5074961;28;20035;-76
2022/06/24 06:55:56;;;;;;;1.88;1.15;;;;;;;33.47;21.23;98149.88;5093084;28;20123;-77
2022/06/24 06:58:23;;;;;;;0.95;0.95;;;;;;;33.07;20.66;98146.97;5072604;28;20411;-76
2022/06/24 07:00:49;;;;;;;1.02;0.82;;;;;;;34.09;20.78;98146.56;5073073;28;20036;-76
2022/06/24 07:03:16;;;;;;;3.15;1.55;;;;;;;34.74;19.00;98148.53;5072674;28;20508;-76
2022/06/24 07:05:43;;;;;;;0.95;0.70;;;;;;;34.89;19.45;98137.00;5072625;28;20481;-76
2022/06/24 07:08:11;;;;;;;2.70;0.95;;;;;;;33.37;20.60;98143.53;5082175;28;20025;-76
2022/06/24 07:10:39;;;;;;;1.25;0.93;;;;;;;34.28;20.80;98147.81;5093132;28;20063;-76
2022/06/24 07:13:05;;;;;;;3.50;0.82;;;;;;;34.35;20.05;98141.66;5109138;28;20376;-76
2022/06/24 07:15:31;;;;;;;0.85;0.70;;;;;;;35.57;20.29;98133.31;5079890;28;20016;-76
2022/06/24 07:17:57;;;;;;;1.00;0.80;;;;;;;33.98;20.85;98141.47;5072868;28;20082;-76
2022/06/24 07:20:23;;;;;;;1.13;1.02;;;;;;;33.14;22.32;98140.88;5072380;28;20130;-76
2022/06/24 07:22:50;;;;;;;0.80;0.80;;;;;;;34.08;21.59;98139.28;5073021;28;20357;-76
2022/06/24 07:25:16;;;;;;;2.85;1.10;;;;;;;33.50;20.88;98134.66;5064448;28;20028;-76
2022/06/24 07:27:42;;;;;;;1.10;0.80;;;;;;;34.85;20.38;98132.78;5080094;28;20043;-76
2022/06/24 07:30:08;;;;;;;1.73;1.00;;;;;;;35.28;20.04;98137.28;5092962;28;20055;-76
2022/06/24 07:32:34;;;;;;;1.23;0.95;;;;;;;35.18;19.69;98127.34;5092812;28;20031;-76
2022/06/24 07:35:00;;;;;;;1.00;0.80;;;;;;;35.19;20.21;98134.63;5092344;28;20032;-76
2022/06/24 07:37:26;;;;;;;0.88;0.85;;;;;;;33.56;21.34;98132.69;5093001;28;20036;-76
2022/06/24 07:39:53;;;;;;;1.60;1.20;;;;;;;33.77;21.50;98127.78;5092755;28;20032;-76
2022/06/24 07:42:19;;;;;;;1.60;0.90;;;;;;;34.29;19.97;98132.25;5088868;28;20507;-76
2022/06/24 07:44:45;;;;;;;0.90;0.90;;;;;;;34.11;21.59;98118.34;5089778;28;20036;-76
2022/06/24 07:47:11;;;;;;;5.43;1.02;;;;;;;34.68;20.73;98124.13;5076352;28;20103;-76
2022/06/24 07:49:37;;;;;;;2.55;0.80;;;;;;;33.90;21.32;98128.19;5075808;28;20078;-76
2022/06/24 07:52:04;;;;;;;0.88;0.85;;;;;;;33.89;20.83;98116.00;5075945;28;20036;-76
2022/06/24 07:54:31;;;;;;;1.45;0.95;;;;;;;34.83;20.76;98121.88;5075939;28;20130;-76
2022/06/24 07:56:57;;;;;;;1.10;0.80;;;;;;;34.44;19.74;98110.13;5075702;28;20036;-76
2022/06/24 07:59:27;;;;;;;3.13;0.70;;;;;;;34.57;19.73;98112.59;5087011;28;20032;-76
2022/06/24 08:01:54;;;;;;;0.60;0.60;;;;;;;35.20;19.10;98102.69;5096038;28;20063;-76
2022/06/24 08:04:22;;;;;;;0.70;0.70;;;;;;;34.66;19.63;98098.94;5111507;28;20028;-76
2022/06/24 08:06:52;;;;;;;0.63;0.60;;;;;;;34.54;19.91;98105.06;5096077;28;20039;-76
2022/06/24 08:09:20;;;;;;;1.85;0.73;;;;;;;33.66;20.00;98096.28;5095873;28;20036;-76
2022/06/24 08:11:46;;;;;;;1.85;0.80;;;;;;;34.14;19.80;98090.91;5096084;28;20039;-76
2022/06/24 08:14:14;;;;;;;0.85;0.80;;;;;;;33.77;19.01;98088.66;5096275;28;20043;-76
2022/06/24 08:16:41;;;;;;;0.63;0.63;;;;;;;34.26;19.93;98087.66;5089482;28;20098;-76
2022/06/24 08:19:07;;;;;;;1.52;0.80;;;;;;;35.28;19.16;98094.44;5085910;28;20040;-76
2022/06/24 08:21:33;;;;;;;0.52;0.52;;;;;;;35.35;18.25;98088.25;5092173;28;20039;-76
2022/06/24 08:24:00;;;;;;;0.60;0.60;;;;;;;34.59;18.58;98087.97;5095685;28;20032;-76
2022/06/24 08:26:26;;;;;;;1.65;0.60;;;;;;;34.48;19.28;98084.22;5095493;28;20031;-76
2022/06/24 08:28:52;;;;;;;0.43;0.43;;;;;;;35.52;18.49;98079.81;5095665;28;20041;-76
2022/06/24 08:31:18;;;;;;;0.63;0.63;;;;;;;35.23;18.85;98080.91;5095706;28;20046;-76
2022/06/24 08:33:44;;;;;;;1.13;0.98;;;;;;;34.68;18.15;98084.19;5089728;28;20529;-77
2022/06/24 08:36:10;;;;;;;1.23;0.80;;;;;;;35.28;18.27;98074.47;5085188;28;20028;-76
2022/06/24 08:38:37;;;;;;;0.40;0.40;;;;;;;35.65;18.67;98072.31;5075163;28;20039;-77
2022/06/24 08:41:03;;;;;;;0.60;0.60;;;;;;;35.82;19.18;98070.31;5075026;28;20492;-76
2022/06/24 08:43:34;;;;;;;3.92;0.80;;;;;;;34.91;18.84;98080.19;5075167;28;20029;-76
2022/06/24 08:46:02;;;;;;;1.75;0.55;;;;;;;34.63;19.25;98070.66;5074802;28;20050;-76
2022/06/24 08:48:31;;;;;;;0.80;0.50;;;;;;;34.63;19.29;98068.59;5074964;28;20078;-76
2022/06/24 08:50:58;;;;;;;0.90;0.65;;;;;;;34.76;17.74;98065.28;5078768;28;20471;-76
2022/06/24 08:53:27;;;;;;;1.02;0.75;;;;;;;33.79;19.12;98068.25;5074178;28;20484;-76
2022/06/24 08:55:54;;;;;;;1.38;1.15;;;;;;;33.78;20.01;98053.22;5074543;28;20078;-76
2022/06/24 08:58:21;;;;;;;0.90;0.70;;;;;;;34.08;20.22;98060.28;5074575;28;20051;-76
2022/06/24 09:00:47;;;;;;;0.63;0.60;;;;;;;35.64;18.70;98056.47;5074737;28;20396;-76
2022/06/24 09:03:14;;;;;;;0.77;0.60;;;;;;;34.10;19.04;98048.38;5074722;28;20418;-76
2022/06/24 09:05:41;;;;;;;1.10;0.70;;;;;;;34.21;19.58;98059.91;5075319;28;20089;-76
2022/06/24 09:08:10;;;;;;;1.38;0.73;;;;;;;34.73;18.45;98054.88;5091170;28;20035;-76
2022/06/24 09:10:39;;;;;;;0.75;0.70;;;;;;;35.01;18.44;98052.25;5095065;28;20032;-76
2022/06/24 09:13:05;;;;;;;1.02;0.80;;;;;;;34.15;19.49;98047.66;5094025;28;20024;-76
2022/06/24 09:15:32;;;;;;;1.05;0.75;;;;;;;35.23;18.97;98046.66;5089719;28;20033;-76
2022/06/24 09:17:59;;;;;;;0.63;0.63;;;;;;;35.63;17.38;98054.13;5074867;28;20158;-76
2022/06/24 09:20:28;;;;;;;0.40;0.40;;;;;;;36.77;16.95;98039.72;5056382;28;20033;-76
2022/06/24 09:23:05;;;;;;;1.13;0.50;;;;;;;35.42;18.15;98042.06;5074865;28;20039;-76
2022/06/24 09:25:46;;;;;;;0.98;0.60;;;;;;;34.44;18.92;98040.91;5094195;28;20028;-76
2022/06/24 09:28:21;;;;;;;1.10;0.57;;;;;;;34.51;18.13;98037.59;5076180;28;20396;-76
2022/06/24 09:30:47;;;;;;;0.70;0.68;;;;;;;35.49;18.09;98037.94;5094113;28;20107;-76
2022/06/24 09:33:20;;;;;;;2.42;0.50;;;;;;;34.90;17.45;98027.25;5094349;28;20085;-76
2022/06/24 09:35:46;;;;;;;0.65;0.65;;;;;;;35.27;18.47;98027.19;5093968;28;20024;-76
2022/06/24 09:38:12;;;;;;;0.60;0.60;;;;;;;36.56;17.16;98032.72;5094246;28;20034;-76
2022/06/24 09:40:41;;;;;;;0.88;0.68;;;;;;;36.35;16.69;98029.31;5089026;28;20491;-76
2022/06/24 09:43:13;;;;;;;0.60;0.50;;;;;;;35.23;17.67;98030.31;5092081;28;20028;-76
2022/06/24 09:45:47;;;;;;;0.75;0.60;;;;;;;35.16;17.09;98027.94;5073713;28;20484;-76
2022/06/24 09:48:29;;;;;;;0.93;0.60;;;;;;;35.55;18.34;98030.19;5074379;28;20028;-77
2022/06/24 09:50:58;;;;;;;1.13;0.50;;;;;;;36.79;16.51;98030.59;5073942;28;20064;-76
2022/06/24 09:53:28;;;;;;;1.40;0.80;;;;;;;36.37;15.92;98017.34;5052586;28;20033;-77
2022/06/24 09:55:55;;;;;;;3.50;0.77;;;;;;;36.47;16.33;98015.84;5070208;28;20116;-77
2022/06/24 09:58:22;;;;;;;0.50;0.50;;;;;;;35.53;17.34;98015.66;5069705;28;20032;-76
2022/06/24 10:00:49;;;;;;;0.70;0.60;;;;;;;35.62;16.92;98024.78;5073750;28;20414;-77
2022/06/24 10:03:16;;;;;;;0.50;0.50;;;;;;;35.33;17.42;98020.25;5073473;28;20123;-77
2022/06/24 10:05:47;;;;;;;0.63;0.63;;;;;;;36.18;17.37;98004.88;5073258;28;20093;-76
2022/06/24 10:08:24;;;;;;;0.47;0.47;;;;;;;35.63;17.05;98005.56;5073384;28;20064;-76
2022/06/24 10:10:52;;;;;;;1.05;0.50;;;;;;;35.23;17.54;97998.91;5073422;28;20085;-77
2022/06/24 10:13:33;;;;;;;0.47;0.40;;;;;;;36.22;16.65;98002.56;5072979;28;20170;-77
2022/06/24 10:16:01;;;;;;;0.40;0.40;;;;;;;36.99;15.22;98007.44;5099317;28;20024;-77
2022/06/24 10:18:42;;;;;;;0.50;0.50;;;;;;;36.88;15.04;97996.75;5114316;28;20036;-76
2022/06/24 10:21:10;;;;;;;0.55;0.50;;;;;;;35.51;16.70;97996.19;5114026;28;20470;-76
2022/06/24 10:23:43;;;;;;;0.65;0.40;;;;;;;35.60;16.32;97998.78;5113749;28;20364;-76
2022/06/24 10:26:14;;;;;;;0.43;0.43;;;;;;;35.17;16.93;97991.63;5129553;27;20391;-77
2022/06/24 10:28:59;;;;;;;0.70;0.70;;;;;;;35.31;16.73;97990.63;5096348;28;20468;-77
2022/06/24 10:34:10;;;;;;;0.35;0.35;;;;;;;35.06;17.87;97978.06;5073143;28;20037;-77
2022/06/24 10:36:36;;;;;;;0.50;0.50;;;;;;;35.48;17.18;97987.81;5086559;28;20032;-77
2022/06/24 10:39:23;;;;;;;0.45;0.40;;;;;;;36.81;16.48;98002.28;5093047;28;20028;-76
2022/06/24 10:42:01;;;;;;;2.15;0.60;;;;;;;36.72;15.44;97989.78;5090778;28;20047;-77
2022/06/24 10:44:32;;;;;;;1.67;0.60;;;;;;;35.66;15.91;97971.00;5073077;28;20050;-77
2022/06/24 10:47:10;;;;;;;0.63;0.55;;;;;;;35.93;17.78;97980.94;5073108;28;20035;-77
2022/06/24 10:49:51;;;;;;;1.33;0.60;;;;;;;35.83;15.72;97977.53;5086177;28;20039;-77
2022/06/24 10:52:39;;;;;;;0.73;0.50;;;;;;;35.54;17.04;97965.81;5093265;28;20020;-77
2022/06/24 10:55:29;;;;;;;0.57;0.57;;;;;;;35.23;16.58;97970.38;5093075;28;20089;-77
2022/06/24 10:58:04;;;;;;;0.55;0.50;;;;;;;35.62;17.68;97970.50;5092710;28;20079;-77
2022/06/24 11:00:39;;;;;;;0.50;0.50;;;;;;;36.97;16.13;97973.59;5093052;28;20463;-76
2022/06/24 11:03:05;;;;;;;0.40;0.40;;;;;;;36.64;15.64;97965.84;5093297;28;20044;-77
2022/06/24 11:05:36;;;;;;;0.40;0.40;;;;;;;36.85;15.74;97966.34;5088501;28;20090;-77
2022/06/24 11:08:11;;;;;;;3.85;0.50;;;;;;;36.97;14.65;97958.53;5072833;28;20125;-77
2022/06/24 11:10:37;;;;;;;0.95;0.50;;;;;;;36.59;16.66;97955.22;5072767;28;20029;-77
2022/06/24 11:13:04;;;;;;;1.30;0.50;;;;;;;37.75;15.33;97947.44;5072642;28;20035;-77
2022/06/24 11:15:43;;;;;;;0.50;0.50;;;;;;;36.43;15.70;97947.41;5089599;28;20448;-77
2022/06/24 11:18:17;;;;;;;0.45;0.40;;;;;;;36.76;15.25;97948.69;5095387;28;20028;-77
2022/06/24 11:20:49;;;;;;;0.50;0.50;;;;;;;36.14;16.19;97947.97;5092332;28;20032;-77
2022/06/24 11:23:17;;;;;;;0.82;0.63;;;;;;;36.07;17.10;97939.91;5082737;28;20029;-77
2022/06/24 11:25:50;;;;;;;0.77;0.50;;;;;;;36.79;15.58;97944.75;5076107;28;20114;-77
2022/06/24 11:28:27;;;;;;;0.60;0.60;;;;;;;37.47;15.27;97938.25;5076511;28;20039;-77
2022/06/24 11:30:56;;;;;;;0.50;0.50;;;;;;;36.44;15.88;97934.66;5058853;28;20063;-77
2022/06/24 11:33:22;;;;;;;1.50;0.60;;;;;;;35.76;16.34;97923.75;5076381;28;20115;-77
2022/06/24 11:35:49;;;;;;;0.60;0.60;;;;;;;35.84;15.96;97924.81;5076330;28;20051;-77
2022/06/24 11:38:19;;;;;;;3.05;0.55;;;;;;;35.94;16.41;97928.97;5076298;28;20039;-77
2022/06/24 11:40:46;;;;;;;1.00;0.77;;;;;;;34.87;16.55;97921.94;5085140;28;20108;-77
2022/06/24 11:43:13;;;;;;;1.05;0.50;;;;;;;36.43;16.93;97920.91;5092102;28;20039;-77
2022/06/24 11:45:45;;;;;;;2.97;0.68;;;;;;;36.46;15.07;97917.00;5076229;28;20476;-77
2022/06/24 11:48:18;;;;;;;0.60;0.60;;;;;;;36.40;15.20;97919.88;5076034;28;20040;-77
2022/06/24 11:50:44;;;;;;;2.03;0.50;;;;;;;36.33;15.33;97922.47;5076171;28;20055;-77